createdAt,value
2022-10-18T00:02:08.705Z,58.40
2022-10-18T00:04:38.757Z,58.50
2022-10-18T00:07:07.548Z,58.60
2022-10-18T00:09:36.106Z,58.80
2022-10-18T00:12:05.132Z,58.50
2022-10-18T00:14:33.628Z,58.30
2022-10-18T00:17:02.167Z,58.30
2022-10-18T00:19:30.717Z,58.20
2022-10-18T00:22:00.406Z,58.20
2022-10-18T00:24:28.956Z,58.30
2022-10-18T00:26:57.398Z,58.40
2022-10-18T00:29:26.057Z,58.50
2022-10-18T00:31:54.448Z,59.10
2022-10-18T00:34:22.976Z,59.10
2022-10-18T00:36:51.365Z,59.10
2022-10-18T00:39:22.719Z,59.20
2022-10-18T00:41:52.186Z,59.30
2022-10-18T00:44:57.521Z,59.20
2022-10-18T00:47:26.096Z,59.30
2022-10-18T00:49:58.056Z,59.50
2022-10-18T00:52:36.780Z,59.80
2022-10-18T00:55:07.786Z,59.90
2022-10-18T00:57:37.169Z,60.10
2022-10-18T01:00:09.909Z,60.70
2022-10-18T01:02:38.978Z,60.80
2022-10-18T01:05:08.749Z,60.80
2022-10-18T01:07:54.447Z,60.90
2022-10-18T01:10:31.708Z,61.60
2022-10-18T01:13:11.436Z,61.60
2022-10-18T01:15:45.117Z,62.50
2022-10-18T01:18:21.760Z,62.40
2022-10-18T01:21:05.603Z,62.20
2022-10-18T01:23:58.498Z,62.50
2022-10-18T01:26:53.967Z,62.70
2022-10-18T01:29:29.578Z,62.70
2022-10-18T01:32:03.444Z,63.20
2022-10-18T01:34:36.398Z,63.30
2022-10-18T01:37:08.598Z,64.00
2022-10-18T01:39:41.405Z,64.60
2022-10-18T01:42:13.681Z,64.30
2022-10-18T01:44:43.098Z,64.10
2022-10-18T01:47:15.299Z,63.90
2022-10-18T01:49:44.009Z,63.60
2022-10-18T01:52:14.618Z,63.80
2022-10-18T01:54:46.147Z,64.60
2022-10-18T01:57:21.506Z,64.60
2022-10-18T01:59:57.451Z,64.20
2022-10-18T02:02:40.595Z,64.80
2022-10-18T02:05:19.618Z,64.90
2022-10-18T02:08:05.663Z,64.70
2022-10-18T02:10:46.018Z,64.80
2022-10-18T02:13:17.527Z,65.50
2022-10-18T02:15:48.748Z,65.70
2022-10-18T02:18:22.498Z,66.20
2022-10-18T02:20:52.383Z,66.90
2022-10-18T02:23:24.190Z,67.50
2022-10-18T02:25:53.659Z,67.40
2022-10-18T02:30:58.726Z,67.30
2022-10-18T02:33:34.927Z,67.70
2022-10-18T02:36:11.658Z,67.90
2022-10-18T02:38:41.969Z,67.80
2022-10-18T02:41:10.469Z,68.40
2022-10-18T02:43:38.938Z,68.50
2022-10-18T02:46:07.517Z,68.80
2022-10-18T02:48:37.250Z,70.00
2022-10-18T02:51:05.809Z,69.70
2022-10-18T02:53:34.359Z,69.70
2022-10-18T02:56:03.378Z,69.60
2022-10-18T02:58:31.792Z,70.00
2022-10-18T03:01:00.269Z,70.20
2022-10-18T03:03:28.717Z,70.10
2022-10-18T03:05:58.445Z,70.20
2022-10-18T03:08:27.026Z,70.00
2022-10-18T03:10:55.460Z,70.20
2022-10-18T03:13:23.960Z,70.60
2022-10-18T03:15:52.458Z,70.60
2022-10-18T03:18:20.840Z,70.80
2022-10-18T03:20:49.276Z,70.70
2022-10-18T03:23:19.057Z,70.70
2022-10-18T03:25:47.508Z,70.70
2022-10-18T03:28:16.110Z,70.50
2022-10-18T03:30:44.546Z,70.40
2022-10-18T03:33:12.967Z,71.60
2022-10-18T03:35:41.721Z,72.30
2022-10-18T03:38:10.335Z,71.70
2022-10-18T03:40:40.147Z,71.50
2022-10-18T03:43:08.568Z,72.10
2022-10-18T03:45:37.048Z,72.80
2022-10-18T03:48:05.866Z,73.70
2022-10-18T03:50:34.417Z,73.50
2022-10-18T03:53:03.019Z,73.40
2022-10-18T03:55:31.428Z,73.30
2022-10-18T03:58:01.158Z,73.10
2022-10-18T04:00:29.858Z,73.10
2022-10-18T04:02:58.407Z,74.20
2022-10-18T04:05:28.377Z,75.70
2022-10-18T04:07:56.798Z,75.40
2022-10-18T04:10:25.196Z,75.90
2022-10-18T04:12:53.898Z,76.00
2022-10-18T04:15:23.628Z,76.10
2022-10-18T04:17:52.097Z,76.30
2022-10-18T04:20:20.586Z,76.90
2022-10-18T04:22:50.758Z,77.70
2022-10-18T04:25:19.265Z,78.20
2022-10-18T04:27:47.826Z,78.70
2022-10-18T04:30:16.617Z,79.50
2022-10-18T04:32:46.276Z,79.40
2022-10-18T04:35:14.818Z,79.30
2022-10-18T04:37:43.299Z,79.60
2022-10-18T04:40:12.515Z,79.90
2022-10-18T04:42:40.971Z,80.10
2022-10-18T04:45:10.056Z,80.90
2022-10-18T04:47:38.660Z,80.60
2022-10-18T04:50:09.158Z,81.40
2022-10-18T04:52:37.610Z,81.40
2022-10-18T04:55:06.726Z,83.10
2022-10-18T04:57:35.194Z,83.10
2022-10-18T05:00:03.917Z,83.30
2022-10-18T05:02:32.524Z,83.90
2022-10-18T05:05:01.157Z,83.80
2022-10-18T05:07:31.337Z,83.20
2022-10-18T05:09:59.816Z,83.10
2022-10-18T05:12:28.217Z,83.00
2022-10-18T05:14:56.913Z,83.20
2022-10-18T05:17:25.378Z,83.10
2022-10-18T05:19:53.938Z,83.60
2022-10-18T05:22:22.381Z,84.40
2022-10-18T05:24:52.188Z,85.10
2022-10-18T05:27:20.687Z,86.70
2022-10-18T05:29:49.165Z,87.40
2022-10-18T05:32:17.569Z,88.30
2022-10-18T05:34:46.157Z,88.60
2022-10-18T05:37:14.656Z,87.70
2022-10-18T05:39:43.667Z,86.20
2022-10-18T05:42:13.397Z,84.90
2022-10-18T05:44:42.006Z,85.10
2022-10-18T05:47:10.477Z,87.50
2022-10-18T05:49:39.038Z,89.90
2022-10-18T05:52:07.510Z,90.30
2022-10-18T05:54:36.028Z,89.90
2022-10-18T05:57:04.517Z,88.40
2022-10-18T05:59:34.437Z,85.00
2022-10-18T06:02:03.468Z,79.30
2022-10-18T06:04:32.048Z,73.60
2022-10-18T06:07:00.397Z,71.60
2022-10-18T06:09:30.711Z,68.30
2022-10-18T06:11:59.177Z,65.50
2022-10-18T06:14:27.778Z,65.00
2022-10-18T06:16:57.619Z,64.60
2022-10-18T06:19:26.247Z,63.20
2022-10-18T06:21:54.622Z,61.70
2022-10-18T06:24:23.329Z,60.10
2022-10-18T06:26:51.719Z,58.80
2022-10-18T06:29:20.207Z,57.40
2022-10-18T06:31:48.617Z,56.70
2022-10-18T06:34:18.486Z,55.50
2022-10-18T06:36:46.897Z,54.60
2022-10-18T06:39:15.457Z,53.80
2022-10-18T06:41:43.848Z,53.40
2022-10-18T06:44:21.048Z,52.30
2022-10-18T06:46:50.167Z,51.80
2022-10-18T06:49:20.507Z,51.10
2022-10-18T06:51:48.974Z,50.00
2022-10-18T06:54:19.148Z,49.70
2022-10-18T06:56:47.939Z,49.20
2022-10-18T06:59:16.698Z,48.20
2022-10-18T07:01:45.229Z,47.40
2022-10-18T07:04:13.900Z,46.00
2022-10-18T07:06:43.737Z,44.80
2022-10-18T07:09:12.470Z,44.20
2022-10-18T07:11:40.896Z,43.40
2022-10-18T07:14:12.710Z,42.40
2022-10-18T07:16:44.610Z,42.70
2022-10-18T07:19:13.979Z,42.40
2022-10-18T07:21:43.837Z,42.20
2022-10-18T07:24:12.368Z,42.30
2022-10-18T07:26:42.499Z,40.70
2022-10-18T07:29:13.328Z,40.50
2022-10-18T07:31:41.926Z,40.00
2022-10-18T07:34:13.912Z,39.30
2022-10-18T07:36:43.787Z,38.60
2022-10-18T07:39:12.436Z,39.00
2022-10-18T07:41:41.206Z,39.30
2022-10-18T07:44:10.157Z,39.70
2022-10-18T07:46:38.580Z,39.50
2022-10-18T07:49:07.196Z,38.10
2022-10-18T07:51:36.167Z,37.60
2022-10-18T07:54:06.126Z,37.20
2022-10-18T07:56:34.529Z,37.00
2022-10-18T07:59:03.121Z,37.20
2022-10-18T08:01:31.647Z,37.10
2022-10-18T08:04:06.117Z,37.20
2022-10-18T08:06:35.946Z,37.00
2022-10-18T08:09:05.960Z,36.50
2022-10-18T08:11:34.817Z,36.70
2022-10-18T08:14:03.353Z,36.90
2022-10-18T08:19:01.429Z,36.30
2022-10-18T08:21:29.867Z,36.40
2022-10-18T08:23:58.382Z,36.00
2022-10-18T08:26:28.165Z,35.90
2022-10-18T08:29:17.580Z,35.90
2022-10-18T08:31:45.077Z,36.80
2022-10-18T08:34:17.297Z,36.20
2022-10-18T08:36:48.066Z,36.10
2022-10-18T08:39:16.738Z,35.50
2022-10-18T08:42:03.479Z,34.80
2022-10-18T08:44:34.046Z,34.30
2022-10-18T08:47:06.875Z,34.40
2022-10-18T08:49:46.638Z,34.50
2022-10-18T08:52:30.442Z,34.40
2022-10-18T08:55:04.017Z,34.10
2022-10-18T08:57:34.413Z,34.10
2022-10-18T09:00:04.400Z,33.90
2022-10-18T09:02:43.389Z,34.00
2022-10-18T09:05:23.870Z,34.00
2022-10-18T09:08:10.368Z,33.60
2022-10-18T09:10:46.131Z,33.40
2022-10-18T09:13:41.999Z,33.20
2022-10-18T09:16:14.358Z,33.20
2022-10-18T09:18:52.777Z,33.00
2022-10-18T09:21:24.449Z,32.40
2022-10-18T09:24:01.817Z,32.10
2022-10-18T09:26:35.887Z,31.80
2022-10-18T09:31:53.831Z,31.10
2022-10-18T09:34:33.303Z,31.10
2022-10-18T09:37:01.997Z,31.10
2022-10-18T09:39:33.758Z,30.40
2022-10-18T09:42:07.005Z,30.00
2022-10-18T09:44:40.747Z,29.90
2022-10-18T09:47:16.853Z,29.90
2022-10-18T09:49:48.661Z,30.00
2022-10-18T09:52:20.876Z,29.70
2022-10-18T09:54:55.518Z,29.60
2022-10-18T09:57:30.488Z,29.60
2022-10-18T10:00:03.551Z,29.80
2022-10-18T10:02:33.430Z,29.50
2022-10-18T10:05:02.200Z,29.50
2022-10-18T10:07:42.217Z,29.10
2022-10-18T10:10:18.162Z,29.20
2022-10-18T10:12:47.018Z,29.70
2022-10-18T10:15:22.753Z,29.50
2022-10-18T10:17:57.357Z,29.80
2022-10-18T10:20:31.628Z,29.50
2022-10-18T10:23:08.505Z,29.50
2022-10-18T10:25:39.376Z,29.70
2022-10-18T10:28:14.195Z,30.00
2022-10-18T10:30:44.188Z,29.90
2022-10-18T10:33:34.046Z,29.50
2022-10-18T10:36:04.713Z,29.70
2022-10-18T10:38:33.301Z,29.80
2022-10-18T10:41:01.777Z,29.60
2022-10-18T10:43:40.624Z,29.80
2022-10-18T10:46:13.163Z,29.70
2022-10-18T10:48:48.708Z,29.70
2022-10-18T10:51:29.091Z,29.70
2022-10-18T10:54:03.095Z,29.50
2022-10-18T10:56:33.238Z,29.70
2022-10-18T10:59:11.295Z,29.60
2022-10-18T11:01:41.817Z,29.70
2022-10-18T11:04:28.468Z,29.90
2022-10-18T11:07:08.058Z,29.80
2022-10-18T11:09:59.696Z,29.50
2022-10-18T11:12:34.948Z,29.40
2022-10-18T11:15:21.887Z,28.90
2022-10-18T11:18:03.702Z,28.80
2022-10-18T11:20:38.019Z,28.50
2022-10-18T11:23:09.679Z,28.10
2022-10-18T11:26:00.977Z,27.90
2022-10-18T11:28:43.284Z,27.90
2022-10-18T11:31:19.069Z,28.00
2022-10-18T11:34:10.121Z,27.70
2022-10-18T11:36:54.732Z,27.50
2022-10-18T11:39:31.108Z,27.90
2022-10-18T11:42:07.756Z,28.10
2022-10-18T11:44:46.868Z,28.40
2022-10-18T11:47:24.419Z,28.00
2022-10-18T11:50:04.087Z,27.50
2022-10-18T11:52:42.812Z,27.40
2022-10-18T11:55:35.491Z,27.10
2022-10-18T11:58:19.398Z,27.10
2022-10-18T12:00:52.192Z,27.20
2022-10-18T12:03:39.441Z,26.90
2022-10-18T12:06:16.362Z,26.90
2022-10-18T12:08:48.547Z,26.70
2022-10-18T12:11:22.153Z,26.20
2022-10-18T12:13:53.707Z,26.10
2022-10-18T12:16:45.574Z,25.30
2022-10-18T12:19:23.563Z,25.10
2022-10-18T12:21:58.739Z,25.00
2022-10-18T12:24:31.267Z,24.80
2022-10-18T12:27:01.926Z,24.60
2022-10-18T12:29:38.432Z,24.90
2022-10-18T12:32:11.252Z,24.20
2022-10-18T12:34:44.704Z,24.20
2022-10-18T12:37:52.739Z,23.20
2022-10-18T12:40:24.909Z,22.30
2022-10-18T12:42:54.533Z,22.50
2022-10-18T12:45:29.080Z,21.70
2022-10-18T12:48:01.358Z,21.50
2022-10-18T12:50:37.271Z,21.10
2022-10-18T12:53:17.457Z,20.90
2022-10-18T12:55:47.422Z,20.50
2022-10-18T12:58:28.333Z,20.90
2022-10-18T13:01:03.032Z,20.90
2022-10-18T13:04:00.682Z,21.20
2022-10-18T13:07:08.015Z,21.50
2022-10-18T13:09:40.028Z,21.10
2022-10-18T13:12:41.317Z,21.40
2022-10-18T13:15:34.207Z,20.50
2022-10-18T13:18:11.299Z,20.80
2022-10-18T13:20:42.990Z,21.10
2022-10-18T13:23:25.009Z,21.00
2022-10-18T13:26:02.509Z,20.80
2022-10-18T13:28:37.706Z,21.00
2022-10-18T13:31:20.387Z,21.50
2022-10-18T13:33:49.178Z,21.40
2022-10-18T13:36:26.157Z,21.30
2022-10-18T13:39:03.417Z,21.40
2022-10-18T13:41:57.563Z,21.50
2022-10-18T13:44:30.519Z,21.20
2022-10-18T13:47:36.230Z,21.50
2022-10-18T13:50:32.128Z,21.80
2022-10-18T13:53:36.557Z,21.30
2022-10-18T13:56:31.719Z,21.20
2022-10-18T13:59:17.001Z,21.70
2022-10-18T14:02:00.602Z,21.50
2022-10-18T14:04:48.128Z,21.80
2022-10-18T14:07:20.339Z,21.80
2022-10-18T14:09:55.189Z,21.80
2022-10-18T14:12:30.574Z,21.30
2022-10-18T14:15:06.771Z,21.00
2022-10-18T14:17:43.095Z,21.30
2022-10-18T14:20:27.362Z,21.10
2022-10-18T14:23:05.266Z,21.00
2022-10-18T14:25:36.662Z,21.20
2022-10-18T14:28:13.556Z,21.10
2022-10-18T14:30:57.729Z,21.10
2022-10-18T14:33:33.298Z,21.00
2022-10-18T14:36:08.146Z,21.00
2022-10-18T14:38:45.647Z,21.30
2022-10-18T14:41:17.600Z,21.40
2022-10-18T14:43:46.696Z,21.50
2022-10-18T14:46:27.262Z,21.60
2022-10-18T14:49:00.207Z,21.50
2022-10-18T14:51:31.209Z,21.70
2022-10-18T14:53:59.931Z,21.80
2022-10-18T14:56:31.925Z,21.90
2022-10-18T14:59:03.990Z,22.20
2022-10-18T15:01:36.459Z,22.30
2022-10-18T15:04:09.291Z,22.40
2022-10-18T15:06:37.717Z,22.60
2022-10-18T15:09:07.600Z,22.90
2022-10-18T15:11:36.358Z,22.90
2022-10-18T15:14:08.706Z,23.10
2022-10-18T15:16:39.649Z,23.50
2022-10-18T15:19:25.925Z,23.80
2022-10-18T15:22:13.650Z,24.20
2022-10-18T15:24:45.057Z,24.50
2022-10-18T15:27:21.215Z,25.00
2022-10-18T15:29:49.917Z,25.60
2022-10-18T15:32:26.268Z,26.30
2022-10-18T15:34:55.286Z,26.70
2022-10-18T15:37:34.135Z,27.10
2022-10-18T15:40:35.653Z,27.60
2022-10-18T15:43:07.055Z,28.00
2022-10-18T15:45:38.541Z,28.30
2022-10-18T15:48:22.847Z,28.60
2022-10-18T15:50:53.065Z,29.10
2022-10-18T15:53:46.849Z,29.70
2022-10-18T15:56:31.216Z,30.00
2022-10-18T15:59:04.113Z,30.40
2022-10-18T16:01:38.185Z,30.80
2022-10-18T16:04:15.206Z,30.90
2022-10-18T16:06:43.658Z,31.10
2022-10-18T16:09:16.298Z,31.50
2022-10-18T16:11:45.472Z,32.60
2022-10-18T16:14:14.595Z,32.60
2022-10-18T16:16:43.138Z,32.90
2022-10-18T16:19:16.046Z,33.20
2022-10-18T16:21:44.649Z,34.30
2022-10-18T16:24:13.099Z,34.40
2022-10-18T16:26:41.516Z,34.60
2022-10-18T16:29:14.415Z,34.90
2022-10-18T16:31:42.998Z,34.90
2022-10-18T16:34:14.777Z,35.10
2022-10-18T16:36:43.255Z,35.10
2022-10-18T16:39:16.561Z,35.10
2022-10-18T16:41:45.100Z,35.20
2022-10-18T16:44:13.999Z,35.50
2022-10-18T16:46:42.628Z,35.90
2022-10-18T16:51:48.517Z,36.40
2022-10-18T16:54:16.917Z,36.80
2022-10-18T16:56:46.806Z,36.70
2022-10-18T16:59:23.178Z,36.70
2022-10-18T17:01:51.621Z,36.90
2022-10-18T17:04:21.457Z,37.50
2022-10-18T17:06:50.167Z,37.20
2022-10-18T17:09:18.566Z,37.50
2022-10-18T17:11:48.292Z,37.50
2022-10-18T17:14:17.018Z,37.80
2022-10-18T17:16:48.289Z,38.00
2022-10-18T17:19:22.716Z,38.30
2022-10-18T17:21:51.147Z,38.70
2022-10-18T17:24:19.610Z,38.70
2022-10-18T17:26:48.085Z,38.70
2022-10-18T17:29:16.567Z,38.70
2022-10-18T17:31:45.017Z,39.00
2022-10-18T17:34:16.500Z,39.40
2022-10-18T17:36:50.028Z,39.60
2022-10-18T17:39:18.488Z,39.80
2022-10-18T17:41:46.927Z,40.50
2022-10-18T17:44:15.481Z,40.70
2022-10-18T17:46:43.935Z,40.90
2022-10-18T17:49:14.080Z,41.10
2022-10-18T17:51:43.016Z,41.80
2022-10-18T17:54:13.087Z,41.40
2022-10-18T17:56:41.856Z,40.90
2022-10-18T17:59:10.580Z,40.90
2022-10-18T18:01:39.202Z,41.10
2022-10-18T18:04:07.848Z,41.00
2022-10-18T18:06:39.110Z,41.50
2022-10-18T18:09:09.662Z,41.30
2022-10-18T18:11:41.402Z,41.50
2022-10-18T18:14:10.311Z,41.50
2022-10-18T18:16:39.827Z,41.90
2022-10-18T18:19:10.004Z,41.80
2022-10-18T18:21:42.368Z,41.80
2022-10-18T18:24:11.227Z,41.90
2022-10-18T18:26:43.522Z,42.20
2022-10-18T18:29:13.937Z,42.50
2022-10-18T18:31:44.035Z,43.00
2022-10-18T18:34:12.937Z,42.80
2022-10-18T18:36:41.752Z,42.60
2022-10-18T18:39:17.268Z,42.80
2022-10-18T18:41:48.396Z,42.80
2022-10-18T18:44:16.975Z,42.80
2022-10-18T18:46:45.438Z,42.80
2022-10-18T18:49:14.999Z,42.80
2022-10-18T18:51:44.163Z,43.00
2022-10-18T18:54:14.807Z,43.00
2022-10-18T18:56:43.778Z,43.40
2022-10-18T18:59:15.457Z,43.40
2022-10-18T19:01:44.666Z,43.90
2022-10-18T19:04:13.237Z,44.00
2022-10-18T19:06:43.229Z,44.30
2022-10-18T19:09:19.248Z,44.40
2022-10-18T19:11:49.747Z,44.20
2022-10-18T19:14:20.138Z,44.10
2022-10-18T19:16:49.441Z,44.10
2022-10-18T19:19:19.929Z,44.00
2022-10-18T19:21:51.407Z,44.00
2022-10-18T19:24:20.720Z,44.00
2022-10-18T19:26:51.616Z,44.70
2022-10-18T19:29:23.496Z,44.20
2022-10-18T19:31:53.219Z,44.50
2022-10-18T19:34:22.888Z,44.50
2022-10-18T19:36:52.490Z,44.50
2022-10-18T19:39:22.958Z,44.60
2022-10-18T19:41:55.179Z,44.40
2022-10-18T19:44:27.496Z,44.70
2022-10-18T19:46:56.969Z,44.90
2022-10-18T19:49:26.123Z,45.20
2022-10-18T19:51:54.529Z,45.10
2022-10-18T19:54:23.081Z,45.10
2022-10-18T19:56:51.588Z,45.20
2022-10-18T19:59:21.349Z,45.20
2022-10-18T20:01:51.397Z,45.40
2022-10-18T20:04:20.043Z,45.30
2022-10-18T20:06:48.549Z,45.40
2022-10-18T20:09:20.422Z,45.70
2022-10-18T20:11:49.903Z,45.80
2022-10-18T20:14:18.637Z,45.70
2022-10-18T20:16:47.628Z,46.00
2022-10-18T20:19:17.370Z,46.20
2022-10-18T20:21:45.830Z,46.40
2022-10-18T20:24:14.276Z,46.70
2022-10-18T20:26:43.904Z,46.60
2022-10-18T20:29:12.535Z,46.80
2022-10-18T20:31:40.966Z,46.70
2022-10-18T20:34:12.256Z,46.80
2022-10-18T20:36:43.014Z,46.90
2022-10-18T20:39:11.416Z,47.00
2022-10-18T20:41:41.419Z,47.00
2022-10-18T20:44:14.258Z,47.20
2022-10-18T20:46:42.976Z,47.30
2022-10-18T20:49:14.855Z,47.30
2022-10-18T20:51:44.814Z,47.20
2022-10-18T20:54:13.870Z,47.50
2022-10-18T20:56:42.350Z,47.60
2022-10-18T20:59:11.631Z,47.50
2022-10-18T21:01:40.943Z,47.70
2022-10-18T21:04:10.504Z,47.70
2022-10-18T21:06:41.397Z,47.70
2022-10-18T21:09:14.400Z,47.70
2022-10-18T21:11:45.085Z,47.80
2022-10-18T21:14:16.133Z,47.80
2022-10-18T21:16:44.782Z,47.90
2022-10-18T21:19:15.999Z,47.90
2022-10-18T21:21:46.289Z,48.30
2022-10-18T21:24:16.227Z,48.20
2022-10-18T21:26:45.051Z,48.30
2022-10-18T21:29:18.145Z,48.40
2022-10-18T21:31:49.447Z,48.50
2022-10-18T21:34:18.859Z,48.50
2022-10-18T21:36:48.555Z,48.60
2022-10-18T21:39:20.189Z,48.70
2022-10-18T21:41:49.416Z,48.80
2022-10-18T21:44:18.567Z,48.90
2022-10-18T21:46:47.769Z,49.20
2022-10-18T21:49:16.821Z,49.30
2022-10-18T21:51:45.800Z,49.20
2022-10-18T21:54:17.301Z,49.30
2022-10-18T21:56:45.677Z,49.30
2022-10-18T21:59:14.925Z,49.60
2022-10-18T22:01:44.660Z,49.50
2022-10-18T22:04:21.188Z,49.80
2022-10-18T22:06:50.143Z,49.90
2022-10-18T22:09:21.203Z,50.00
2022-10-18T22:11:52.411Z,50.10
2022-10-18T22:14:21.178Z,50.30
2022-10-18T22:16:49.772Z,50.30
2022-10-18T22:19:18.261Z,50.30
2022-10-18T22:21:46.709Z,50.30
2022-10-18T22:24:15.358Z,50.50
2022-10-18T22:26:46.359Z,50.60
2022-10-18T22:29:16.640Z,50.70
2022-10-18T22:31:47.898Z,50.70
2022-10-18T22:34:18.231Z,50.60
2022-10-18T22:36:47.251Z,50.60
2022-10-18T22:39:16.792Z,50.80
2022-10-18T22:41:47.491Z,51.00
2022-10-18T22:44:16.534Z,50.90
2022-10-18T22:46:45.028Z,51.10
2022-10-18T22:49:13.960Z,51.00
2022-10-18T22:51:42.423Z,51.00
2022-10-18T22:54:11.284Z,51.00
2022-10-18T22:56:39.739Z,51.30
2022-10-18T22:59:09.522Z,51.40
2022-10-18T23:01:38.818Z,51.40
2022-10-18T23:04:07.359Z,51.50
2022-10-18T23:06:37.229Z,52.00
2022-10-18T23:09:08.644Z,52.00
2022-10-18T23:11:37.972Z,52.00
2022-10-18T23:14:07.497Z,51.90
2022-10-18T23:16:38.264Z,52.00
2022-10-18T23:19:06.699Z,52.20
2022-10-18T23:21:35.577Z,53.00
2022-10-18T23:24:04.565Z,52.60
2022-10-18T23:26:33.267Z,52.50
2022-10-18T23:29:01.854Z,52.50
2022-10-18T23:31:31.999Z,52.80
2022-10-18T23:34:04.187Z,52.80
2022-10-18T23:36:33.809Z,52.70
2022-10-18T23:39:02.649Z,52.70
2022-10-18T23:41:31.448Z,52.70
2022-10-18T23:44:00.006Z,52.70
2022-10-18T23:46:28.379Z,54.30
2022-10-18T23:48:56.778Z,54.00
2022-10-18T23:51:26.425Z,53.80
2022-10-18T23:53:54.907Z,53.80
2022-10-18T23:56:23.327Z,53.70
2022-10-18T23:58:51.847Z,53.80
